Time;durP1;ratioP1;P1;durP2;ratioP2;P2;SDS_P1;SDS_P2;PMS_P1;PMS_P2;Temp;Humidity;BMP_temperature;BMP_pressure;BME280_temperature;BME280_humidity;BME280_pressure;Samples;Min_cycle;Max_cycle;Signal;HPM_P1;HPM_P2
2022/04/05 00:08:10;;;;;;;9.6;12.2;;;;;;;4.3;64.9;97420;;;;
2022/04/05 00:19:10;;;;;;;8.8;10.7;;;;;;;4.2;66.2;97400;;;;
2022/04/05 00:29:10;;;;;;;8.8;10.7;;;;;;;4.1;66.5;97380;;;;
2022/04/05 00:39:10;;;;;;;8.8;10.7;;;;;;;4;67.8;97370;;;;
2022/04/05 00:50:10;;;;;;;7.6;9.5;;;;;;;3.8;69.3;97360;;;;
2022/04/05 01:01:15;;;;;;;7.6;9.5;;;;;;;3.7;70.1;97350;;;;
2022/04/05 01:12:10;;;;;;;7.6;9.5;;;;;;;3.7;70.3;97350;;;;
2022/04/05 01:22:10;;;;;;;8.8;11.8;;;;;;;3.8;70.1;97340;;;;
2022/04/05 01:32:10;;;;;;;8.8;11.8;;;;;;;3.8;70.3;97320;;;;
2022/04/05 01:43:10;;;;;;;8.8;11.8;;;;;;;3.8;71.8;97330;;;;
2022/04/05 01:54:10;;;;;;;8.4;10.5;;;;;;;3.6;74;97330;;;;
2022/04/05 02:05:10;;;;;;;8.4;10.5;;;;;;;3.4;76.7;97330;;;;
2022/04/05 02:15:10;;;;;;;8.4;10.5;;;;;;;3.2;77.9;97320;;;;
2022/04/05 02:26:11;;;;;;;7.6;10.3;;;;;;;3;79.2;97310;;;;
2022/04/05 02:36:10;;;;;;;7.6;10.3;;;;;;;3;79.8;97290;;;;
2022/04/05 02:47:11;;;;;;;7;9.8;;;;;;;2.9;80.6;97300;;;;
2022/04/05 02:57:10;;;;;;;7;9.8;;;;;;;2.9;80.7;97300;;;;
2022/04/05 03:08:10;;;;;;;7;9.8;;;;;;;2.8;81.3;97290;;;;
2022/04/05 03:19:11;;;;;;;5.3;7;;;;;;;2.8;81.7;97280;;;;
2022/04/05 03:29:10;;;;;;;5.3;7;;;;;;;2.8;81.6;97270;;;;
2022/04/05 03:40:12;;;;;;;5.3;7;;;;;;;2.9;81.4;97270;;;;
2022/04/05 03:51:10;;;;;;;4.5;6.8;;;;;;;3;81.1;97270;;;;
2022/04/05 04:02:10;;;;;;;4.5;6.8;;;;;;;3;80.7;97270;;;;
2022/04/05 04:12:10;;;;;;;4.5;6.8;;;;;;;3.1;80.6;97270;;;;
2022/04/05 04:23:10;;;;;;;3.2;5.5;;;;;;;3.2;80.7;97270;;;;
2022/04/05 04:33:10;;;;;;;3.2;5.5;;;;;;;3.2;80.7;97280;;;;
2022/04/05 04:44:10;;;;;;;3.2;5.5;;;;;;;3.3;80.9;97280;;;;
2022/04/05 04:55:10;;;;;;;2.5;4.2;;;;;;;3.4;80.9;97280;;;;
2022/04/05 05:06:10;;;;;;;2.5;4.2;;;;;;;3.4;81.3;97290;;;;
2022/04/05 05:16:10;;;;;;;3.4;5;;;;;;;3.4;81.5;97300;;;;
2022/04/05 05:27:10;;;;;;;3.4;5;;;;;;;3.4;81.5;97310;;;;
2022/04/05 05:38:10;;;;;;;3.4;5;;;;;;;3.4;81.5;97320;;;;
2022/04/05 05:49:10;;;;;;;2.8;4.5;;;;;;;3.4;81.6;97330;;;;
2022/04/05 06:00:10;;;;;;;2.8;4.5;;;;;;;3.4;81.8;97330;;;;
2022/04/05 06:10:10;;;;;;;2.8;4.5;;;;;;;3.5;81.9;97330;;;;
2022/04/05 06:21:10;;;;;;;2.3;4.2;;;;;;;3.5;81.7;97340;;;;
2022/04/05 06:31:10;;;;;;;2.3;4.2;;;;;;;3.5;82.2;97340;;;;
2022/04/05 06:42:10;;;;;;;2.3;4.2;;;;;;;3.6;82;97350;;;;
2022/04/05 06:52:10;;;;;;;2.6;5;;;;;;;3.8;82.2;97360;;;;
2022/04/05 07:03:10;;;;;;;2.6;5;;;;;;;3.9;81.8;97360;;;;
2022/04/05 07:13:10;;;;;;;2.6;5;;;;;;;3.9;81.7;97360;;;;
2022/04/05 07:24:10;;;;;;;1.7;3.3;;;;;;;4;81.4;97370;;;;
2022/04/05 07:35:10;;;;;;;1.7;3.3;;;;;;;4.1;81.5;97370;;;;
2022/04/05 07:46:10;;;;;;;2.6;4.8;;;;;;;4.4;81;97390;;;;
2022/04/05 07:56:12;;;;;;;2.6;4.8;;;;;;;4.5;80.9;97380;;;;
2022/04/05 08:06:10;;;;;;;2.6;4.8;;;;;;;4.7;80.3;97380;;;;
2022/04/05 08:17:10;;;;;;;2.4;4.8;;;;;;;4.8;79.8;97400;;;;
2022/04/05 08:27:10;;;;;;;2.4;4.8;;;;;;;4.9;79.5;97400;;;;
2022/04/05 08:38:10;;;;;;;2.4;4.8;;;;;;;5;79;97410;;;;
2022/04/05 08:48:10;;;;;;;2.4;4.5;;;;;;;5.4;78.2;97410;;;;
2022/04/05 08:58:10;;;;;;;2.4;4.5;;;;;;;5.4;78.1;97410;;;;
2022/04/05 09:08:10;;;;;;;2.4;4.5;;;;;;;5.7;77.9;97430;;;;
2022/04/05 09:18:10;;;;;;;2.9;4.6;;;;;;;5.7;76.7;97420;;;;
2022/04/05 09:28:10;;;;;;;2.9;4.6;;;;;;;5.9;76.3;97430;;;;
2022/04/05 09:39:10;;;;;;;2.9;4.6;;;;;;;5.7;76.2;97430;;;;
2022/04/05 09:49:10;;;;;;;3;5.3;;;;;;;5.8;76.7;97440;;;;
2022/04/05 09:59:10;;;;;;;3;5.3;;;;;;;5.8;76.2;97440;;;;
2022/04/05 10:09:10;;;;;;;3;5.3;;;;;;;5.9;76.2;97450;;;;
2022/04/05 10:19:10;;;;;;;2.3;5;;;;;;;5.9;76.2;97460;;;;
2022/04/05 10:29:10;;;;;;;2.3;5;;;;;;;5.8;76.2;97450;;;;
2022/04/05 10:39:10;;;;;;;2.3;5;;;;;;;6;76.1;97450;;;;
2022/04/05 10:50:10;;;;;;;2.7;4.3;;;;;;;6.4;74.9;97460;;;;
2022/04/05 11:01:10;;;;;;;2.7;4.3;;;;;;;6.4;74.9;97460;;;;
2022/04/05 11:11:10;;;;;;;2.7;4.3;;;;;;;6.4;74.6;97480;;;;
2022/04/05 11:21:10;;;;;;;2.9;5.9;;;;;;;6.2;74.6;97480;;;;
2022/04/05 11:31:11;;;;;;;2.9;5.9;;;;;;;6.2;74.9;97480;;;;
2022/04/05 11:41:10;;;;;;;2.9;5.9;;;;;;;6.5;74.3;97500;;;;
2022/04/05 11:51:10;;;;;;;3.9;7.6;;;;;;;6.7;73;97490;;;;
2022/04/05 12:01:10;;;;;;;3.9;7.6;;;;;;;7;72.1;97490;;;;
2022/04/05 12:12:10;;;;;;;3.9;7.6;;;;;;;6.8;72.5;97490;;;;
2022/04/05 12:22:10;;;;;;;3;4.6;;;;;;;6.7;72.2;97490;;;;
2022/04/05 12:33:10;;;;;;;3;4.6;;;;;;;6.7;72.7;97500;;;;
2022/04/05 12:44:10;;;;;;;5;7.2;;;;;;;6.7;72.4;97500;;;;
2022/04/05 12:54:10;;;;;;;5;7.2;;;;;;;6.5;72.5;97500;;;;
2022/04/05 13:06:20;;;;;;;5;7.2;;;;;;;6.6;72.3;97480;;;;
2022/04/05 13:15:10;;;;;;;5.2;8.1;;;;;;;6.7;72.4;97480;;;;
2022/04/05 13:25:10;;;;;;;5.2;8.1;;;;;;;6.7;72.5;97480;;;;
2022/04/05 13:36:10;;;;;;;5.2;8.1;;;;;;;6.7;72.3;97480;;;;
2022/04/05 13:46:10;;;;;;;5.3;8;;;;;;;6.7;72.3;97490;;;;
2022/04/05 13:57:11;;;;;;;5.3;8;;;;;;;7;72;97480;;;;
2022/04/05 14:08:10;;;;;;;5.3;8;;;;;;;7.1;71.7;97480;;;;
2022/04/05 14:19:11;;;;;;;6.7;9.3;;;;;;;7.3;71;97480;;;;
2022/04/05 14:29:10;;;;;;;6.7;9.3;;;;;;;7.5;70.5;97480;;;;
2022/04/05 14:40:11;;;;;;;6.7;9.3;;;;;;;7.8;69.3;97480;;;;
2022/04/05 14:50:10;;;;;;;7.5;10.4;;;;;;;7.8;68.8;97480;;;;
2022/04/05 15:01:10;;;;;;;7.5;10.4;;;;;;;8;68.5;97470;;;;
2022/04/05 15:12:10;;;;;;;7.5;10.4;;;;;;;8.1;67.7;97480;;;;
2022/04/05 15:23:10;;;;;;;8.7;11.6;;;;;;;8.3;67.1;97470;;;;
2022/04/05 15:33:10;;;;;;;8.7;11.6;;;;;;;8.2;68.7;97480;;;;
2022/04/05 15:44:10;;;;;;;7.8;9.1;;;;;;;7.8;69.3;97490;;;;
2022/04/05 15:55:10;;;;;;;7.8;9.1;;;;;;;7.6;69.1;97490;;;;
2022/04/05 16:06:10;;;;;;;7.8;9.1;;;;;;;7.4;69.4;97490;;;;
2022/04/05 16:17:10;;;;;;;6.7;10.1;;;;;;;7.4;69.5;97500;;;;
2022/04/05 16:27:10;;;;;;;6.7;10.1;;;;;;;7.3;69.7;97510;;;;
2022/04/05 16:38:10;;;;;;;6.7;10.1;;;;;;;7.2;70.2;97520;;;;
2022/04/05 16:48:10;;;;;;;7;9.3;;;;;;;7.2;69.9;97520;;;;
2022/04/05 16:59:11;;;;;;;7;9.3;;;;;;;7.2;69.8;97530;;;;
2022/04/05 17:09:11;;;;;;;7;9.3;;;;;;;7.2;69.6;97520;;;;
2022/04/05 17:20:12;;;;;;;7.4;12;;;;;;;7.2;69.7;97520;;;;
2022/04/05 17:30:11;;;;;;;7.4;12;;;;;;;7.2;69.5;97530;;;;
2022/04/05 17:41:10;;;;;;;7.4;12;;;;;;;7.1;70;97540;;;;
2022/04/05 17:51:10;;;;;;;8.4;11.9;;;;;;;7.1;70.1;97550;;;;
2022/04/05 18:01:10;;;;;;;8.4;11.9;;;;;;;7;70.5;97560;;;;
2022/04/05 18:12:12;;;;;;;8.4;11.9;;;;;;;7;70.4;97580;;;;
2022/04/05 18:22:10;;;;;;;9.9;13.4;;;;;;;7;70.8;97590;;;;
2022/04/05 18:32:10;;;;;;;9.9;13.4;;;;;;;6.9;70.7;97590;;;;
2022/04/05 18:42:10;;;;;;;9.9;13.4;;;;;;;6.9;70.9;97600;;;;
2022/04/05 18:53:11;;;;;;;12.9;15.9;;;;;;;6.9;71.3;97600;;;;
2022/04/05 19:04:10;;;;;;;12.9;15.9;;;;;;;6.8;71.6;97620;;;;
2022/04/05 19:14:10;;;;;;;8.4;10.6;;;;;;;6.9;71.4;97620;;;;
2022/04/05 19:25:13;;;;;;;8.4;10.6;;;;;;;6.9;71.5;97620;;;;
2022/04/05 19:35:11;;;;;;;8.4;10.6;;;;;;;7;71.3;97620;;;;
2022/04/05 19:45:10;;;;;;;9.6;13.8;;;;;;;7;71.4;97610;;;;
2022/04/05 19:56:10;;;;;;;9.6;13.8;;;;;;;7;71.3;97620;;;;
2022/04/05 20:07:10;;;;;;;9.6;13.8;;;;;;;7.1;71.7;97620;;;;
2022/04/05 20:27:10;;;;;;;10.5;15.7;;;;;;;7.2;72.2;97620;;;;
2022/04/05 20:38:10;;;;;;;10.5;15.7;;;;;;;7.3;72.3;97620;;;;
2022/04/05 20:48:10;;;;;;;5.3;8.1;;;;;;;7.4;72;97630;;;;
2022/04/05 20:59:10;;;;;;;5.3;8.1;;;;;;;7.4;72.2;97630;;;;
2022/04/05 21:09:11;;;;;;;5.3;8.1;;;;;;;7.5;72;97620;;;;
2022/04/05 21:19:10;;;;;;;5.4;7.3;;;;;;;7.6;72.2;97620;;;;
2022/04/05 21:29:43;;;;;;;5.4;7.3;;;;;;;7.6;72.7;97620;;;;
2022/04/05 21:39:11;;;;;;;5.4;7.3;;;;;;;7.6;73.1;97610;;;;
2022/04/05 21:49:11;;;;;;;5.3;9.6;;;;;;;7.5;73.6;97620;;;;
2022/04/05 21:59:10;;;;;;;5.3;9.6;;;;;;;7.5;74.2;97620;;;;
2022/04/05 22:09:10;;;;;;;5.3;9.6;;;;;;;7.4;75.1;97620;;;;
2022/04/05 22:20:10;;;;;;;5.6;8.1;;;;;;;7.3;75.3;97610;;;;
2022/04/05 22:31:10;;;;;;;5.6;8.1;;;;;;;7.3;75.1;97600;;;;
2022/04/05 22:41:10;;;;;;;5.6;8.1;;;;;;;7.4;74.7;97590;;;;
2022/04/05 22:52:11;;;;;;;5.6;7.4;;;;;;;7.3;74.9;97590;;;;
2022/04/05 23:03:10;;;;;;;5.6;7.4;;;;;;;7.2;75.2;97590;;;;
2022/04/05 23:13:11;;;;;;;5.4;8.2;;;;;;;7.2;75.1;97590;;;;
2022/04/05 23:24:10;;;;;;;5.4;8.2;;;;;;;7.3;74.9;97590;;;;
2022/04/05 23:34:10;;;;;;;5.4;8.2;;;;;;;7.4;74.5;97600;;;;
2022/04/05 23:44:10;;;;;;;4.6;6.3;;;;;;;7.5;74.2;97580;;;;
2022/04/05 23:55:10;;;;;;;4.6;6.3;;;;;;;7.5;73.8;97590;;;;
